Time;durP1;ratioP1;P1;durP2;ratioP2;P2;SDS_P1;SDS_P2;PMS_P1;PMS_P2;Temp;Humidity;BMP_temperature;BMP_pressure;BME280_temperature;BME280_humidity;BME280_pressure;Samples;Min_cycle;Max_cycle;Signal;HPM_P1;HPM_P2
2021/10/09 00:02:21;;;;;;;22.48;16.98;;;9.50;99.90;;;;;;5051643;28;20025;-74
2021/10/09 00:04:47;;;;;;;24.70;18.10;;;9.40;99.90;;;;;;5050147;28;20540;-74
2021/10/09 00:07:12;;;;;;;20.70;17.60;;;9.20;99.90;;;;;;5050686;28;20388;-75
2021/10/09 00:09:38;;;;;;;35.97;18.55;;;9.10;99.90;;;;;;5046635;28;20021;-73
2021/10/09 00:12:04;;;;;;;22.67;18.55;;;9.00;99.90;;;;;;5050473;28;20025;-73
2021/10/09 00:14:29;;;;;;;26.58;17.70;;;9.00;99.90;;;;;;5047684;28;20025;-74
2021/10/09 00:16:55;;;;;;;24.65;16.35;;;8.90;99.90;;;;;;5054271;28;20029;-72
2021/10/09 00:19:20;;;;;;;28.55;19.20;;;8.90;99.90;;;;;;5055616;28;20096;-72
2021/10/09 00:21:47;;;;;;;22.27;16.67;;;8.90;99.90;;;;;;5036908;28;20032;-73
2021/10/09 00:24:14;;;;;;;25.25;18.88;;;8.80;99.90;;;;;;5056826;28;20475;-72
2021/10/09 00:26:41;;;;;;;26.58;19.50;;;8.80;99.90;;;;;;5056197;28;20032;-73
2021/10/09 00:29:07;;;;;;;27.35;19.95;;;8.70;99.90;;;;;;5054914;28;20029;-72
2021/10/09 00:31:33;;;;;;;27.42;20.13;;;8.70;99.90;;;;;;5053019;28;20029;-73
2021/10/09 00:33:59;;;;;;;28.13;20.02;;;8.60;99.90;;;;;;5051685;28;20075;-73
2021/10/09 00:36:25;;;;;;;24.08;18.75;;;8.60;99.90;;;;;;5050833;28;20037;-72
2021/10/09 00:38:51;;;;;;;27.55;21.20;;;8.60;99.90;;;;;;5051166;28;20032;-71
2021/10/09 00:41:16;;;;;;;23.75;18.33;;;8.50;99.90;;;;;;5054799;28;20101;-73
2021/10/09 00:43:42;;;;;;;24.33;18.35;;;8.50;99.90;;;;;;5040906;28;20055;-72
2021/10/09 00:46:07;;;;;;;24.30;19.38;;;8.50;99.90;;;;;;5038418;28;20493;-73
2021/10/09 00:48:34;;;;;;;27.02;19.63;;;8.50;99.90;;;;;;5057733;28;20113;-72
2021/10/09 00:51:00;;;;;;;25.38;18.98;;;8.50;99.90;;;;;;5057116;28;20508;-72
2021/10/09 00:53:28;;;;;;;26.70;20.80;;;8.40;99.90;;;;;;5058314;28;20025;-72
2021/10/09 00:55:55;;;;;;;24.63;19.77;;;8.40;99.90;;;;;;5059004;28;20500;-74
2021/10/09 00:58:22;;;;;;;25.75;18.63;;;8.40;99.90;;;;;;5058353;28;20088;-72
2021/10/09 01:00:49;;;;;;;27.02;19.10;;;8.30;99.90;;;;;;5055050;28;20036;-72
2021/10/09 01:03:14;;;;;;;26.65;18.58;;;8.30;99.90;;;;;;5051326;28;20060;-72
2021/10/09 01:05:40;;;;;;;23.45;18.67;;;8.40;99.90;;;;;;5050972;28;20064;-72
2021/10/09 01:08:06;;;;;;;28.27;17.90;;;8.40;99.90;;;;;;5051462;28;20456;-72
2021/10/09 01:10:32;;;;;;;21.42;16.27;;;8.30;99.90;;;;;;5031267;28;20025;-72
2021/10/09 01:12:59;;;;;;;20.30;16.33;;;8.30;99.90;;;;;;5051366;28;20079;-72
2021/10/09 01:15:32;;;;;;;21.77;15.73;;;8.30;99.90;;;;;;5052061;28;20075;-73
2021/10/09 01:18:12;;;;;;;19.67;16.63;;;8.30;99.90;;;;;;5036838;28;20489;-72
2021/10/09 01:20:45;;;;;;;20.10;17.35;;;8.30;99.90;;;;;;5054884;28;20024;-73
2021/10/09 01:23:11;;;;;;;26.15;16.88;;;8.20;99.90;;;;;;5029283;28;20396;-73
2021/10/09 01:25:36;;;;;;;20.55;16.98;;;8.20;99.90;;;;;;5054412;28;20021;-73
2021/10/09 01:28:02;;;;;;;22.40;17.95;;;8.20;99.90;;;;;;5054892;28;20029;-73
2021/10/09 01:30:28;;;;;;;23.33;18.00;;;8.20;99.90;;;;;;5052528;28;20033;-73
2021/10/09 01:32:53;;;;;;;29.85;19.05;;;8.10;99.90;;;;;;5054314;28;20029;-73
2021/10/09 01:35:19;;;;;;;23.77;18.02;;;8.10;99.90;;;;;;5054497;28;20021;-73
2021/10/09 01:37:44;;;;;;;22.48;18.52;;;8.00;99.90;;;;;;5036671;28;20017;-73
2021/10/09 01:40:10;;;;;;;25.33;18.90;;;7.90;99.90;;;;;;5054881;28;20158;-72
2021/10/09 01:42:36;;;;;;;24.35;17.77;;;8.00;99.90;;;;;;5054442;28;20060;-72
2021/10/09 01:45:06;;;;;;;22.60;17.95;;;7.90;99.90;;;;;;5054721;28;20110;-72
2021/10/09 01:47:32;;;;;;;24.88;18.33;;;7.90;99.90;;;;;;5064036;23;20056;-77
2021/10/09 01:49:58;;;;;;;24.73;17.63;;;7.90;99.90;;;;;;5040127;28;20028;-76
2021/10/09 01:52:23;;;;;;;24.00;16.75;;;7.90;99.90;;;;;;5057482;28;20161;-77
2021/10/09 01:54:49;;;;;;;23.95;17.42;;;7.90;99.90;;;;;;5056684;28;20056;-76
2021/10/09 01:57:15;;;;;;;23.75;19.10;;;7.80;99.90;;;;;;5032697;28;20036;-75
2021/10/09 01:59:40;;;;;;;22.13;17.65;;;7.80;99.90;;;;;;5041415;28;20013;-75
2021/10/09 02:02:06;;;;;;;28.00;19.25;;;7.80;99.90;;;;;;5055669;28;20029;-75
2021/10/09 02:04:33;;;;;;;21.15;17.85;;;7.70;99.90;;;;;;5060927;28;20112;-76
2021/10/09 02:06:59;;;;;;;22.67;18.67;;;7.70;99.90;;;;;;5056830;28;20043;-74
2021/10/09 02:09:24;;;;;;;24.75;18.08;;;7.70;99.90;;;;;;5058440;28;20029;-75
2021/10/09 02:11:51;;;;;;;25.65;17.83;;;7.70;99.90;;;;;;5049068;28;20116;-75
2021/10/09 02:25:02;;;;;;;24.85;17.48;;;7.70;99.90;;;;;;5075165;28;20104;-75
2021/10/09 02:27:28;;;;;;;21.88;17.88;;;7.70;99.90;;;;;;5065579;28;20071;-76
2021/10/09 02:29:53;;;;;;;23.48;17.90;;;7.70;99.90;;;;;;5037487;28;20041;-76
2021/10/09 02:32:19;;;;;;;22.42;16.85;;;7.60;99.90;;;;;;5054131;28;20083;-76
2021/10/09 02:34:44;;;;;;;21.05;16.60;;;7.60;99.90;;;;;;5051056;28;20484;-76
2021/10/09 02:37:10;;;;;;;21.38;16.15;;;7.60;99.90;;;;;;5054181;28;20025;-76
2021/10/09 02:39:35;;;;;;;23.25;18.35;;;7.50;99.90;;;;;;5051320;28;20021;-75
2021/10/09 02:42:01;;;;;;;22.08;16.83;;;7.50;99.90;;;;;;5053664;28;20381;-76
2021/10/09 02:44:27;;;;;;;21.35;16.80;;;7.40;99.90;;;;;;5053226;28;20029;-74
2021/10/09 02:46:52;;;;;;;19.60;16.20;;;7.40;99.90;;;;;;5053630;28;20056;-76
2021/10/09 02:49:18;;;;;;;19.92;16.23;;;7.40;99.90;;;;;;5053101;28;20036;-75
2021/10/09 02:51:43;;;;;;;21.48;17.35;;;7.40;99.90;;;;;;5051379;28;20040;-75
2021/10/09 02:54:09;;;;;;;23.55;17.42;;;7.40;99.90;;;;;;5052827;28;20028;-76
2021/10/09 02:56:34;;;;;;;23.85;17.33;;;7.40;99.90;;;;;;5052363;28;20473;-75
2021/10/09 02:59:00;;;;;;;20.30;16.70;;;7.40;99.90;;;;;;5051236;28;20025;-75
2021/10/09 03:01:25;;;;;;;21.83;17.42;;;7.40;99.90;;;;;;5052706;28;20130;-75
2021/10/09 03:03:51;;;;;;;23.55;17.13;;;7.30;99.90;;;;;;5049576;28;20106;-75
2021/10/09 03:06:16;;;;;;;21.35;16.83;;;7.30;99.90;;;;;;5051783;28;20493;-75
2021/10/09 03:08:42;;;;;;;20.45;17.20;;;7.30;99.90;;;;;;5052448;28;20037;-75
2021/10/09 03:11:08;;;;;;;26.35;18.42;;;7.30;99.90;;;;;;5050418;28;20039;-76
2021/10/09 03:13:33;;;;;;;25.25;18.23;;;7.30;99.90;;;;;;5038312;28;20574;-76
2021/10/09 03:15:59;;;;;;;20.50;17.23;;;7.20;99.90;;;;;;5050399;28;20033;-75
2021/10/09 03:18:24;;;;;;;26.98;17.08;;;7.20;99.90;;;;;;5050994;28;20049;-74
2021/10/09 03:20:50;;;;;;;20.73;16.55;;;7.20;99.90;;;;;;5051308;28;20106;-75
2021/10/09 03:23:15;;;;;;;20.42;17.80;;;7.20;99.90;;;;;;5050099;28;20040;-75
2021/10/09 03:25:41;;;;;;;23.40;18.25;;;7.20;99.90;;;;;;5050876;28;20028;-75
2021/10/09 03:28:06;;;;;;;22.17;17.33;;;7.20;99.90;;;;;;5051433;28;20025;-75
2021/10/09 03:30:32;;;;;;;25.15;17.92;;;7.10;99.90;;;;;;5036479;28;20059;-75
2021/10/09 03:32:58;;;;;;;25.15;17.10;;;7.10;99.90;;;;;;5052476;28;20504;-75
2021/10/09 03:35:23;;;;;;;22.23;16.15;;;7.10;99.90;;;;;;5050172;28;20064;-76
2021/10/09 03:37:49;;;;;;;20.60;16.30;;;7.10;99.90;;;;;;5033840;28;20291;-76
2021/10/09 03:40:18;;;;;;;22.52;18.00;;;7.10;99.90;;;;;;5051193;28;20017;-76
2021/10/09 03:45:31;;;;;;;22.63;18.02;;;7.10;99.90;;;;;;5050697;28;20021;-76
2021/10/09 03:48:08;;;;;;;23.77;18.65;;;7.10;99.90;;;;;;5052203;28;20021;-76
2021/10/09 03:53:04;;;;;;;26.83;18.00;;;7.10;99.90;;;;;;5050267;28;20078;-76
2021/10/09 03:55:30;;;;;;;27.17;18.95;;;7.00;99.90;;;;;;5047436;28;20036;-76
2021/10/09 03:57:56;;;;;;;26.98;17.95;;;7.00;99.90;;;;;;5057310;28;20473;-76
2021/10/09 04:00:21;;;;;;;27.02;20.23;;;7.10;99.90;;;;;;5034315;28;20116;-76
2021/10/09 04:02:47;;;;;;;21.02;16.58;;;7.00;99.90;;;;;;5052021;28;20028;-76
2021/10/09 04:05:13;;;;;;;22.85;17.38;;;7.00;99.90;;;;;;5051593;28;20021;-77
2021/10/09 04:07:39;;;;;;;24.02;17.98;;;6.90;99.90;;;;;;5035574;28;20063;-76
2021/10/09 04:10:06;;;;;;;25.25;17.50;;;6.90;99.90;;;;;;5051762;28;20025;-76
2021/10/09 04:12:32;;;;;;;23.58;17.13;;;6.80;99.90;;;;;;5046604;28;20100;-76
2021/10/09 04:14:57;;;;;;;23.48;18.13;;;6.90;99.90;;;;;;5053205;28;20107;-75
2021/10/09 04:17:23;;;;;;;25.92;16.92;;;6.90;99.90;;;;;;5048736;28;20018;-75
2021/10/09 04:19:48;;;;;;;22.88;17.60;;;6.90;99.90;;;;;;5048470;28;20060;-75
2021/10/09 04:22:14;;;;;;;23.85;17.33;;;6.90;99.90;;;;;;5049907;28;20032;-76
2021/10/09 04:24:40;;;;;;;21.42;16.63;;;7.00;99.90;;;;;;5050862;28;20025;-76
2021/10/09 04:27:05;;;;;;;20.73;17.80;;;7.00;99.90;;;;;;5051206;28;20017;-75
2021/10/09 04:29:31;;;;;;;21.65;17.13;;;7.00;99.90;;;;;;5033276;28;20507;-75
2021/10/09 04:31:56;;;;;;;24.52;19.52;;;6.90;99.90;;;;;;5049554;28;20566;-75
2021/10/09 04:34:23;;;;;;;26.38;18.35;;;6.90;99.90;;;;;;5047151;28;20025;-77
2021/10/09 04:36:49;;;;;;;21.20;16.55;;;6.90;99.90;;;;;;5046206;28;20032;-75
2021/10/09 04:39:14;;;;;;;26.60;17.77;;;6.90;99.90;;;;;;5050850;28;20025;-74
2021/10/09 04:41:40;;;;;;;24.23;18.23;;;7.00;99.90;;;;;;5051476;28;20435;-75
2021/10/09 04:44:05;;;;;;;25.85;18.05;;;7.00;99.90;;;;;;5045232;28;20036;-76
2021/10/09 04:46:31;;;;;;;24.77;17.55;;;6.90;99.90;;;;;;5051365;28;20496;-75
2021/10/09 04:48:57;;;;;;;27.50;17.83;;;6.90;99.90;;;;;;5050755;28;20033;-74
2021/10/09 04:51:24;;;;;;;25.58;17.65;;;6.80;99.90;;;;;;5052356;28;20412;-76
2021/10/09 04:53:50;;;;;;;25.05;17.67;;;6.80;99.90;;;;;;5051945;28;20451;-75
2021/10/09 04:56:16;;;;;;;28.70;16.65;;;6.80;99.90;;;;;;5053116;28;20033;-74
2021/10/09 04:58:41;;;;;;;20.50;16.63;;;6.90;99.90;;;;;;5061996;28;20068;-76
2021/10/09 05:01:07;;;;;;;24.35;16.65;;;6.90;99.90;;;;;;5055817;28;20053;-75
2021/10/09 05:03:32;;;;;;;30.48;16.50;;;6.90;99.90;;;;;;5057028;28;20473;-75
2021/10/09 05:05:58;;;;;;;26.23;16.77;;;6.90;99.90;;;;;;5055805;28;20532;-74
2021/10/09 05:08:23;;;;;;;22.98;16.83;;;6.90;99.90;;;;;;5056455;28;20090;-76
2021/10/09 05:10:49;;;;;;;20.02;16.88;;;6.90;99.90;;;;;;5055326;28;20118;-76
2021/10/09 05:13:14;;;;;;;21.95;17.60;;;6.90;99.90;;;;;;5055646;28;20120;-75
2021/10/09 05:15:44;;;;;;;24.95;16.33;;;6.80;99.90;;;;;;5055608;28;20079;-76
2021/10/09 05:18:11;;;;;;;22.67;17.35;;;6.80;99.90;;;;;;5055775;28;20420;-76
2021/10/09 05:20:38;;;;;;;22.55;16.17;;;6.80;99.90;;;;;;5056007;28;20021;-76
2021/10/09 05:23:04;;;;;;;23.48;17.10;;;6.70;99.90;;;;;;5041977;28;20045;-76
2021/10/09 05:25:32;;;;;;;23.15;16.45;;;6.70;99.90;;;;;;5049568;28;20025;-76
2021/10/09 05:28:04;;;;;;;21.20;17.63;;;6.70;99.90;;;;;;5062361;28;20031;-76
2021/10/09 05:30:30;;;;;;;29.38;16.27;;;6.70;99.90;;;;;;5056898;28;20028;-76
2021/10/09 05:33:18;;;;;;;22.42;16.67;;;6.80;99.90;;;;;;5056129;28;20033;-76
2021/10/09 05:35:44;;;;;;;25.17;17.25;;;6.80;99.90;;;;;;5038894;28;20025;-75
2021/10/09 05:38:09;;;;;;;28.08;17.33;;;6.80;99.90;;;;;;5058917;28;20032;-75
2021/10/09 05:40:35;;;;;;;26.77;18.38;;;6.70;99.90;;;;;;5061240;28;20022;-75
2021/10/09 05:43:01;;;;;;;27.88;17.33;;;6.70;99.90;;;;;;5068900;28;20455;-74
2021/10/09 05:45:27;;;;;;;22.02;16.42;;;6.70;99.90;;;;;;5060555;28;20029;-74
2021/10/09 05:47:53;;;;;;;23.42;17.17;;;6.70;99.90;;;;;;5068478;28;20071;-75
2021/10/09 05:50:22;;;;;;;24.15;17.80;;;6.70;99.90;;;;;;5074703;28;20048;-76
2021/10/09 05:52:55;;;;;;;23.08;17.65;;;6.70;99.90;;;;;;5067044;28;20025;-75
2021/10/09 05:55:26;;;;;;;20.08;16.25;;;6.70;99.90;;;;;;5067181;28;20039;-75
2021/10/09 05:58:05;;;;;;;21.30;16.52;;;6.70;99.90;;;;;;5065249;28;20025;-75
2021/10/09 06:59:45;;;;;;;24.27;16.02;;;8.20;99.90;;;;;;5054544;28;20427;-76
2021/10/09 07:02:11;;;;;;;22.17;17.10;;;8.40;99.90;;;;;;5053890;28;20021;-76
2021/10/09 07:04:37;;;;;;;20.92;15.90;;;8.60;99.90;;;;;;5054045;28;20032;-76
2021/10/09 07:07:05;;;;;;;21.48;16.73;;;8.80;99.90;;;;;;5053751;28;20033;-75
2021/10/09 07:09:31;;;;;;;20.50;15.30;;;8.70;99.90;;;;;;5037634;28;20485;-76
2021/10/09 07:11:56;;;;;;;22.20;16.23;;;8.90;99.90;;;;;;5035892;28;20037;-75
2021/10/09 07:14:23;;;;;;;20.08;15.25;;;9.10;99.90;;;;;;5041315;28;20026;-76
2021/10/09 07:16:49;;;;;;;19.45;14.93;;;9.10;99.90;;;;;;5056193;28;20441;-76
2021/10/09 07:19:15;;;;;;;21.85;15.35;;;9.10;99.90;;;;;;5055066;28;20023;-76
2021/10/09 07:21:41;;;;;;;23.20;15.75;;;9.30;99.90;;;;;;5051847;28;20095;-76
2021/10/09 07:24:06;;;;;;;17.48;14.50;;;9.30;99.90;;;;;;5054153;28;20028;-76
2021/10/09 07:26:32;;;;;;;24.92;16.73;;;9.50;99.90;;;;;;5048630;28;20424;-73
2021/10/09 07:28:57;;;;;;;23.60;16.33;;;9.50;99.90;;;;;;5053000;28;20057;-73
2021/10/09 07:31:23;;;;;;;24.33;16.40;;;9.40;99.90;;;;;;5053098;28;20155;-74
2021/10/09 07:33:48;;;;;;;20.58;14.77;;;9.40;99.90;;;;;;5051710;28;20064;-73
2021/10/09 07:36:16;;;;;;;22.77;14.70;;;9.60;99.90;;;;;;5052650;28;20520;-74
2021/10/09 07:38:42;;;;;;;22.10;16.65;;;9.50;99.90;;;;;;5053699;28;20028;-72
2021/10/09 07:41:08;;;;;;;18.95;15.32;;;9.60;99.90;;;;;;5055225;28;20021;-73
2021/10/09 07:43:33;;;;;;;18.58;16.58;;;9.50;99.90;;;;;;5055194;28;20037;-76
2021/10/09 07:45:59;;;;;;;22.80;17.55;;;9.60;99.90;;;;;;5080262;22;20028;-78
2021/10/09 07:48:24;;;;;;;19.83;15.60;;;9.90;99.90;;;;;;5049237;28;20024;-77
2021/10/09 07:50:50;;;;;;;21.20;15.63;;;9.80;99.90;;;;;;5065736;28;20037;-77
2021/10/09 07:53:16;;;;;;;20.50;15.18;;;10.00;99.90;;;;;;5073541;28;20051;-77
2021/10/09 07:55:41;;;;;;;21.42;15.10;;;10.10;99.90;;;;;;5074350;28;20455;-77
2021/10/09 07:58:07;;;;;;;17.10;15.13;;;10.20;99.90;;;;;;5056829;28;20396;-79
2021/10/09 08:00:32;;;;;;;20.50;15.07;;;10.10;99.90;;;;;;5052335;28;20040;-77
2021/10/09 08:03:03;;;;;;;21.42;15.82;;;10.30;99.90;;;;;;5070013;28;20027;-77
2021/10/09 08:05:28;;;;;;;16.45;13.38;;;10.40;99.90;;;;;;5074012;28;20384;-78
2021/10/09 08:07:54;;;;;;;21.65;15.77;;;10.40;99.90;;;;;;5055399;28;20021;-77
2021/10/09 08:10:19;;;;;;;20.17;15.20;;;10.40;99.90;;;;;;5055146;28;20499;-79
2021/10/09 08:12:45;;;;;;;21.15;14.18;;;10.50;99.90;;;;;;5057877;28;20049;-78
2021/10/09 08:15:11;;;;;;;24.05;14.63;;;10.80;99.90;;;;;;5078701;28;20067;-78
2021/10/09 08:17:37;;;;;;;18.08;14.63;;;10.90;99.90;;;;;;5080587;28;20027;-78
2021/10/09 08:20:04;;;;;;;18.88;14.35;;;11.10;99.90;;;;;;5077480;28;20035;-77
2021/10/09 08:22:33;;;;;;;18.90;15.02;;;11.20;99.90;;;;;;5080675;28;20028;-79
2021/10/09 08:25:37;;;;;;;23.15;14.57;;;11.30;99.90;;;;;;5089152;28;20033;-78
2021/10/09 08:41:13;;;;;;;16.10;13.98;;;11.70;99.90;;;;;;5085426;28;20020;-77
2021/10/09 08:43:46;;;;;;;19.52;13.40;;;11.80;99.90;;;;;;5080955;28;20052;-77
2021/10/09 08:46:12;;;;;;;15.52;13.50;;;11.80;99.90;;;;;;5078281;28;20035;-76
2021/10/09 08:48:42;;;;;;;20.95;15.55;;;11.80;99.90;;;;;;5082479;28;20020;-77
2021/10/09 08:51:08;;;;;;;18.50;14.20;;;11.90;99.90;;;;;;5079094;28;20016;-78
2021/10/09 08:53:38;;;;;;;19.10;14.25;;;12.00;99.90;;;;;;5059292;28;20039;-76
2021/10/09 08:56:04;;;;;;;17.10;14.00;;;11.90;99.90;;;;;;5069600;28;20088;-74
2021/10/09 08:58:36;;;;;;;25.67;14.95;;;12.00;99.90;;;;;;5095465;28;20427;-74
2021/10/09 09:01:19;;;;;;;18.52;15.30;;;12.00;99.90;;;;;;5077810;28;20504;-75
2021/10/09 09:07:15;;;;;;;18.92;14.50;;;12.10;99.90;;;;;;5076614;28;20039;-74
2021/10/09 09:40:05;;;;;;;20.98;14.88;;;13.10;99.90;;;;;;5073105;28;20029;-73
2021/10/09 09:42:30;;;;;;;19.08;14.02;;;13.30;99.90;;;;;;5055687;28;20032;-73
2021/10/09 09:44:58;;;;;;;21.80;14.93;;;13.30;99.90;;;;;;5074562;28;20365;-73
2021/10/09 09:47:41;;;;;;;19.13;14.45;;;13.40;99.90;;;;;;5057986;28;20060;-74
2021/10/09 09:50:12;;;;;;;20.90;13.23;;;13.50;99.90;;;;;;5073767;28;20063;-73
2021/10/09 09:52:43;;;;;;;16.10;13.20;;;13.50;99.90;;;;;;5078170;28;20037;-75
2021/10/09 09:55:11;;;;;;;18.88;14.48;;;13.60;99.90;;;;;;5079645;28;20066;-74
2021/10/09 09:57:38;;;;;;;25.15;13.55;;;13.60;99.90;;;;;;5074144;28;20032;-74
2021/10/09 10:00:11;;;;;;;16.15;13.18;;;13.60;99.90;;;;;;5073996;28;20035;-73
2021/10/09 10:02:50;;;;;;;18.92;13.98;;;13.70;99.90;;;;;;5038275;28;20017;-74
2021/10/09 10:05:17;;;;;;;16.17;12.38;;;13.80;99.90;;;;;;5071055;28;20064;-73
2021/10/09 10:07:43;;;;;;;16.05;12.68;;;13.80;99.90;;;;;;5074330;28;20132;-73
2021/10/09 10:10:09;;;;;;;24.40;13.48;;;13.80;99.90;;;;;;5074769;28;20032;-73
2021/10/09 10:12:37;;;;;;;17.25;11.77;;;14.00;99.90;;;;;;5075872;28;20526;-75
2021/10/09 10:15:05;;;;;;;17.88;11.85;;;14.10;99.90;;;;;;5076286;28;20425;-74
2021/10/09 10:17:40;;;;;;;19.10;12.27;;;14.10;99.90;;;;;;5086695;28;20462;-73
2021/10/09 10:20:08;;;;;;;14.13;11.43;;;14.20;99.90;;;;;;5094090;28;20052;-73
2021/10/09 10:22:33;;;;;;;16.70;11.80;;;14.30;99.90;;;;;;5076117;28;20058;-75
2021/10/09 10:24:59;;;;;;;19.02;13.38;;;14.50;99.90;;;;;;5084513;28;20032;-74
2021/10/09 10:27:42;;;;;;;14.95;11.88;;;14.50;99.90;;;;;;5077820;28;20032;-74
2021/10/09 10:30:14;;;;;;;20.48;11.88;;;14.60;99.90;;;;;;5072968;28;20020;-73
2021/10/09 10:32:40;;;;;;;15.05;11.50;;;14.60;99.90;;;;;;5098032;28;20067;-73
2021/10/09 10:35:28;;;;;;;15.75;11.68;;;14.70;99.90;;;;;;5098921;28;20037;-73
2021/10/09 10:37:56;;;;;;;16.35;11.38;;;14.80;99.90;;;;;;5096345;28;20040;-74
2021/10/09 10:41:00;;;;;;;16.88;11.48;;;14.90;99.90;;;;;;5085306;28;20534;-74
2021/10/09 10:46:25;;;;;;;15.77;10.93;;;14.90;99.90;;;;;;5067257;28;20032;-74
2021/10/09 10:51:43;;;;;;;13.32;11.50;;;15.00;99.90;;;;;;5073803;28;20024;-74
2021/10/09 10:59:46;;;;;;;12.43;10.73;;;15.20;99.90;;;;;;5074394;28;20043;-74
2021/10/09 11:02:37;;;;;;;16.05;10.38;;;15.20;99.90;;;;;;5055566;28;20431;-74
2021/10/09 11:05:15;;;;;;;16.08;9.63;;;15.40;99.90;;;;;;5075035;28;20044;-74
2021/10/09 11:07:43;;;;;;;10.77;9.27;;;15.50;99.90;;;;;;5074097;28;20434;-74
2021/10/09 11:10:17;;;;;;;15.55;10.80;;;15.60;99.90;;;;;;5072975;28;20439;-75
2021/10/09 11:12:52;;;;;;;12.52;10.02;;;15.50;99.90;;;;;;5072423;28;20037;-74
2021/10/09 11:15:23;;;;;;;11.25;9.80;;;15.60;99.90;;;;;;5074346;28;20079;-74
2021/10/09 11:18:04;;;;;;;16.15;9.07;;;15.80;99.90;;;;;;5073192;28;20027;-74
2021/10/09 11:20:41;;;;;;;14.05;8.98;;;16.00;99.90;;;;;;5056976;28;20039;-74
2021/10/09 11:23:09;;;;;;;12.32;10.48;;;15.80;99.90;;;;;;5068043;28;20097;-75
2021/10/09 11:25:37;;;;;;;17.65;10.23;;;16.00;99.90;;;;;;5053795;28;20029;-75
2021/10/09 11:28:05;;;;;;;13.10;9.75;;;16.00;99.90;;;;;;5066199;28;20036;-74
2021/10/09 11:30:32;;;;;;;11.23;9.82;;;15.80;99.90;;;;;;5095724;28;20080;-74
2021/10/09 11:32:59;;;;;;;11.57;9.52;;;15.80;99.90;;;;;;5092294;28;20092;-74
2021/10/09 11:35:30;;;;;;;9.95;8.93;;;15.90;99.90;;;;;;5096963;28;20020;-74
2021/10/09 11:37:57;;;;;;;12.95;9.45;;;16.10;99.90;;;;;;5092828;28;20075;-75
2021/10/09 11:40:39;;;;;;;13.82;9.20;;;16.30;99.90;;;;;;5077179;28;20038;-75
2021/10/09 11:43:27;;;;;;;10.02;9.02;;;16.30;99.90;;;;;;5073356;28;20054;-73
2021/10/09 11:56:46;;;;;;;13.25;9.57;;;16.40;99.90;;;;;;5072944;28;20039;-75
2021/10/09 11:59:13;;;;;;;11.25;8.82;;;16.50;99.90;;;;;;5072003;28;20021;-74
2021/10/09 12:01:43;;;;;;;13.45;8.60;;;16.60;99.90;;;;;;5054742;28;20480;-74
2021/10/09 12:04:22;;;;;;;15.27;8.45;;;16.60;99.90;;;;;;5072346;28;20068;-75
2021/10/09 12:09:34;;;;;;;10.45;7.72;;;16.70;99.90;;;;;;5073722;28;20444;-74
2021/10/09 12:12:17;;;;;;;10.35;7.70;;;16.70;99.90;;;;;;5074854;28;20094;-74
2021/10/09 12:14:43;;;;;;;10.52;7.80;;;16.60;99.90;;;;;;5073558;28;20480;-76
2021/10/09 12:17:09;;;;;;;10.25;9.10;;;16.70;99.90;;;;;;5072603;28;20033;-73
2021/10/09 12:19:35;;;;;;;10.45;8.40;;;16.60;99.90;;;;;;5073340;28;20031;-75
2021/10/09 12:22:05;;;;;;;12.65;7.70;;;16.70;99.90;;;;;;5073844;28;20052;-74
2021/10/09 12:24:44;;;;;;;8.65;7.20;;;16.70;99.90;;;;;;5073560;28;20089;-76
2021/10/09 12:27:16;;;;;;;8.82;7.85;;;16.70;99.90;;;;;;5054719;28;20028;-74
2021/10/09 12:30:04;;;;;;;9.20;8.05;;;16.80;99.90;;;;;;5073179;28;20051;-75
2021/10/09 12:32:41;;;;;;;13.27;8.00;;;16.80;99.90;;;;;;5073296;28;20051;-76
2021/10/09 12:35:15;;;;;;;8.25;6.75;;;16.90;99.90;;;;;;5056146;28;20054;-76
2021/10/09 12:37:53;;;;;;;10.07;7.05;;;16.80;99.90;;;;;;5073549;28;20036;-76
2021/10/09 12:40:18;;;;;;;11.18;8.00;;;16.80;99.90;;;;;;5058333;28;20055;-75
2021/10/09 12:42:49;;;;;;;12.25;8.15;;;16.70;99.90;;;;;;5072388;28;20405;-73
2021/10/09 12:45:15;;;;;;;;;;;16.70;99.90;;;;;;5074459;28;20020;-73
2021/10/09 12:47:42;;;;;;;10.68;8.35;;;16.70;99.90;;;;;;5072105;28;19913;-74
2021/10/09 12:50:08;;;;;;;10.95;8.98;;;16.80;99.90;;;;;;5071907;28;20036;-74
2021/10/09 12:52:34;;;;;;;13.32;8.32;;;16.90;99.90;;;;;;5054992;28;20041;-75
2021/10/09 12:55:02;;;;;;;9.13;8.05;;;16.80;99.90;;;;;;5073192;28;20041;-73
2021/10/09 12:57:29;;;;;;;9.07;7.13;;;16.70;99.80;;;;;;5072727;28;20023;-74
2021/10/09 12:59:54;;;;;;;8.02;6.63;;;16.70;99.90;;;;;;5055056;28;20036;-75
2021/10/09 13:02:20;;;;;;;11.40;7.75;;;16.60;99.90;;;;;;5053316;28;20017;-73
2021/10/09 13:04:45;;;;;;;11.77;8.60;;;16.70;99.90;;;;;;5072616;28;20380;-74
2021/10/09 13:07:11;;;;;;;12.98;8.27;;;16.80;99.90;;;;;;5072434;28;20112;-74
2021/10/09 13:09:36;;;;;;;10.60;7.55;;;16.70;99.90;;;;;;5073763;28;20037;-74
2021/10/09 13:12:04;;;;;;;9.43;7.85;;;16.70;99.70;;;;;;5056860;28;20033;-73
2021/10/09 13:14:29;;;;;;;13.15;8.63;;;16.60;99.90;;;;;;5079571;28;20111;-75
2021/10/09 13:16:56;;;;;;;9.40;7.85;;;16.70;99.90;;;;;;5077903;28;20481;-75
2021/10/09 13:19:21;;;;;;;9.13;8.20;;;16.70;99.90;;;;;;5079519;28;20024;-74
2021/10/09 13:21:47;;;;;;;10.90;8.60;;;16.80;99.90;;;;;;5076390;28;20154;-74
2021/10/09 13:24:14;;;;;;;10.90;8.32;;;16.80;99.90;;;;;;5077208;28;21911;-76
2021/10/09 13:26:39;;;;;;;10.60;8.23;;;16.80;99.90;;;;;;5079462;28;20020;-74
2021/10/09 13:29:06;;;;;;;9.15;7.63;;;16.80;99.90;;;;;;5075772;28;20515;-74
2021/10/09 13:31:32;;;;;;;9.13;7.53;;;16.80;99.80;;;;;;5076693;28;20488;-73
2021/10/09 13:33:58;;;;;;;9.13;7.53;;;16.80;99.90;;;;;;5074961;28;20033;-73
2021/10/09 13:36:24;;;;;;;7.85;7.05;;;16.80;99.60;;;;;;5068892;28;20019;-75
2021/10/09 13:38:50;;;;;;;9.40;7.18;;;16.80;99.60;;;;;;5077833;28;20029;-76
2021/10/09 13:41:16;;;;;;;9.35;7.25;;;16.80;99.70;;;;;;5081427;28;20055;-73
2021/10/09 13:43:42;;;;;;;9.68;8.65;;;16.80;99.80;;;;;;5062676;28;20168;-76
2021/10/09 13:46:08;;;;;;;9.13;6.95;;;16.70;99.90;;;;;;5079872;28;20036;-75
2021/10/09 13:48:34;;;;;;;9.40;7.47;;;16.80;99.90;;;;;;5097093;22;20127;-72
2021/10/09 13:51:00;;;;;;;9.20;7.85;;;16.70;99.70;;;;;;5075529;28;20028;-71
2021/10/09 13:53:26;;;;;;;9.02;7.78;;;16.80;99.60;;;;;;5068163;28;20036;-71
2021/10/09 13:55:52;;;;;;;12.32;7.20;;;16.70;99.70;;;;;;5073704;28;20056;-71
2021/10/09 13:58:18;;;;;;;8.45;7.60;;;16.80;99.90;;;;;;5074721;28;20021;-71
2021/10/09 14:00:45;;;;;;;11.90;7.22;;;16.90;99.90;;;;;;5067610;28;20043;-70
2021/10/09 14:03:12;;;;;;;9.52;6.95;;;16.90;99.30;;;;;;5055146;28;20021;-70
2021/10/09 14:05:38;;;;;;;7.28;6.57;;;16.90;99.70;;;;;;5066408;28;20400;-70
2021/10/09 14:08:04;;;;;;;10.35;7.13;;;16.80;99.10;;;;;;5070944;28;20024;-71
2021/10/09 14:10:30;;;;;;;9.43;7.18;;;16.80;99.40;;;;;;5071650;28;20023;-70
2021/10/09 14:12:57;;;;;;;8.02;6.90;;;16.80;99.40;;;;;;5070552;28;20032;-71
2021/10/09 14:15:24;;;;;;;10.20;8.25;;;16.70;99.80;;;;;;5064807;28;20064;-73
2021/10/09 14:17:50;;;;;;;10.80;7.28;;;16.80;99.80;;;;;;5068542;28;20029;-71
2021/10/09 14:20:15;;;;;;;9.70;7.35;;;16.80;99.70;;;;;;5066283;28;20075;-71
2021/10/09 14:22:41;;;;;;;14.40;7.95;;;16.90;99.60;;;;;;5067943;28;20024;-71
2021/10/09 14:25:09;;;;;;;20.40;8.30;;;16.80;99.50;;;;;;5078301;28;20033;-72
2021/10/09 14:27:35;;;;;;;10.68;7.75;;;16.80;99.60;;;;;;5075157;28;20036;-72
2021/10/09 14:30:01;;;;;;;9.68;7.78;;;16.80;99.30;;;;;;5075466;28;20033;-72
2021/10/09 14:32:27;;;;;;;13.15;7.53;;;16.80;99.60;;;;;;5071877;28;20041;-72
2021/10/09 14:34:53;;;;;;;10.50;7.97;;;16.70;99.70;;;;;;5056973;28;20036;-73
2021/10/09 14:37:19;;;;;;;10.20;7.68;;;16.70;99.70;;;;;;5077016;28;20105;-73
2021/10/09 14:39:45;;;;;;;8.65;7.72;;;16.70;99.90;;;;;;5059027;28;20103;-73
2021/10/09 14:42:12;;;;;;;9.35;7.70;;;16.70;99.90;;;;;;5076139;28;20016;-73
2021/10/09 14:44:39;;;;;;;12.18;7.18;;;16.70;99.90;;;;;;5078844;28;20514;-71
2021/10/09 14:50:26;;;;;;;8.63;6.70;;;16.80;99.60;;;;;;5073300;28;20602;-72
2021/10/09 15:17:48;;;;;;;10.43;6.88;;;16.60;99.10;;;;;;5063641;28;20077;-73
2021/10/09 15:20:14;;;;;;;8.10;6.97;;;16.50;99.50;;;;;;5070130;28;20150;-72
2021/10/09 15:22:40;;;;;;;7.28;6.35;;;16.60;99.70;;;;;;5070373;28;20025;-73
2021/10/09 15:25:06;;;;;;;8.95;6.38;;;16.60;99.40;;;;;;5067836;28;20033;-72
2021/10/09 15:27:32;;;;;;;8.55;6.38;;;16.50;98.90;;;;;;5065316;28;20400;-74
2021/10/09 15:29:58;;;;;;;6.97;6.00;;;16.50;98.50;;;;;;5068862;28;20035;-71
2021/10/09 15:32:24;;;;;;;7.90;6.18;;;16.50;98.40;;;;;;5075041;28;20108;-73
2021/10/09 15:34:50;;;;;;;8.05;5.72;;;16.50;98.40;;;;;;5066983;28;20040;-72